createdAt,value
2018-03-25T00:01:53.226Z,63.10
2018-03-25T00:04:22.920Z,62.96
2018-03-25T00:06:52.651Z,63.28
2018-03-25T00:09:22.398Z,63.68
2018-03-25T00:11:52.386Z,63.63
2018-03-25T00:14:22.103Z,63.63
2018-03-25T00:16:51.900Z,63.57
2018-03-25T00:19:22.033Z,63.72
2018-03-25T00:21:51.821Z,63.67
2018-03-25T00:24:21.615Z,63.73
2018-03-25T00:26:51.477Z,63.67
2018-03-25T00:29:21.173Z,63.59
2018-03-25T00:31:50.982Z,63.57
2018-03-25T00:34:20.794Z,63.63
2018-03-25T00:36:50.556Z,63.71
2018-03-25T00:39:21.982Z,63.61
2018-03-25T00:41:51.768Z,63.60
2018-03-25T00:44:21.700Z,63.71
2018-03-25T00:46:51.442Z,63.85
2018-03-25T00:49:21.318Z,64.02
2018-03-25T00:51:57.532Z,64.13
2018-03-25T00:54:28.182Z,63.96
2018-03-25T00:56:57.992Z,63.87
2018-03-25T00:59:28.073Z,63.91
2018-03-25T01:01:58.994Z,64.03
2018-03-25T01:04:29.196Z,64.05
2018-03-25T01:06:58.908Z,64.14
2018-03-25T01:09:28.893Z,64.38
2018-03-25T01:12:00.317Z,64.38
2018-03-25T01:14:30.275Z,64.54
2018-03-25T01:17:00.045Z,64.67
2018-03-25T01:19:30.253Z,64.86
2018-03-25T01:22:00.039Z,64.89
2018-03-25T01:24:30.179Z,65.04
2018-03-25T01:27:00.936Z,65.01
2018-03-25T01:29:30.772Z,64.97
2018-03-25T01:32:01.240Z,65.04
2018-03-25T01:34:31.188Z,64.86
2018-03-25T01:37:00.936Z,64.94
2018-03-25T01:39:31.418Z,65.19
2018-03-25T01:42:01.878Z,65.38
2018-03-25T01:44:32.112Z,65.58
2018-03-25T01:47:02.359Z,65.62
2018-03-25T01:49:32.310Z,65.66
2018-03-25T01:52:02.166Z,65.86
2018-03-25T01:54:31.989Z,65.79
2018-03-25T01:57:01.697Z,65.81
2018-03-25T01:59:31.544Z,66.15
2018-03-25T02:02:01.302Z,66.43
2018-03-25T02:04:31.984Z,66.53
2018-03-25T02:07:01.779Z,66.90
2018-03-25T02:09:31.512Z,66.79
2018-03-25T02:12:01.452Z,66.61
2018-03-25T02:14:31.229Z,66.71
2018-03-25T02:17:01.098Z,66.70
2018-03-25T02:19:31.724Z,66.65
2018-03-25T02:22:02.238Z,66.80
2018-03-25T02:24:31.980Z,67.08
2018-03-25T02:27:01.807Z,66.97
2018-03-25T02:29:31.668Z,66.79
2018-03-25T02:32:01.751Z,66.84
2018-03-25T02:34:31.637Z,66.89
2018-03-25T02:37:01.608Z,66.72
2018-03-25T02:39:31.561Z,66.68
2018-03-25T02:42:02.118Z,66.87
2018-03-25T02:44:31.945Z,67.01
2018-03-25T02:47:01.781Z,66.95
2018-03-25T02:49:32.601Z,66.73
2018-03-25T02:52:02.345Z,66.68
2018-03-25T02:54:32.048Z,66.50
2018-03-25T02:57:01.977Z,66.82
2018-03-25T02:59:33.015Z,67.04
2018-03-25T03:02:03.052Z,67.06
2018-03-25T03:04:32.866Z,66.95
2018-03-25T03:07:02.885Z,66.74
2018-03-25T03:09:32.737Z,66.71
2018-03-25T03:12:03.197Z,66.72
2018-03-25T03:14:32.953Z,66.40
2018-03-25T03:17:02.791Z,66.32
2018-03-25T03:19:32.736Z,66.60
2018-03-25T03:22:03.341Z,66.70
2018-03-25T03:24:33.017Z,66.68
2018-03-25T03:27:02.815Z,66.55
2018-03-25T03:29:32.599Z,66.99
2018-03-25T03:32:03.069Z,67.40
2018-03-25T03:34:33.065Z,67.42
2018-03-25T03:37:03.953Z,67.37
2018-03-25T03:39:33.737Z,67.18
2018-03-25T03:42:03.786Z,67.17
2018-03-25T03:44:33.532Z,67.08
2018-03-25T03:47:03.242Z,66.89
2018-03-25T03:49:33.808Z,66.95
2018-03-25T03:52:03.915Z,66.91
2018-03-25T03:54:34.558Z,67.15
2018-03-25T03:57:04.665Z,67.28
2018-03-25T03:59:35.279Z,67.54
2018-03-25T04:02:05.164Z,67.25
2018-03-25T04:04:35.145Z,67.02
2018-03-25T04:07:05.882Z,67.15
2018-03-25T04:09:35.596Z,67.13
2018-03-25T04:12:05.619Z,67.54
2018-03-25T04:14:35.550Z,67.54
2018-03-25T04:17:05.704Z,67.59
2018-03-25T04:19:35.481Z,67.50
2018-03-25T04:22:05.909Z,67.49
2018-03-25T04:24:35.620Z,67.92
2018-03-25T04:27:05.363Z,67.93
2018-03-25T04:29:35.186Z,68.10
2018-03-25T04:32:04.989Z,68.87
2018-03-25T04:34:34.889Z,69.54
2018-03-25T04:37:04.690Z,69.43
2018-03-25T04:39:34.352Z,69.10
2018-03-25T04:42:05.157Z,68.64
2018-03-25T04:44:34.971Z,68.51
2018-03-25T04:47:05.462Z,68.33
2018-03-25T04:49:35.279Z,68.40
2018-03-25T04:52:05.107Z,68.12
2018-03-25T04:54:35.216Z,67.84
2018-03-25T04:57:05.139Z,67.94
2018-03-25T04:59:35.248Z,68.02
2018-03-25T05:02:04.993Z,68.12
2018-03-25T05:04:34.706Z,68.25
2018-03-25T05:07:06.040Z,68.47
2018-03-25T05:09:35.832Z,68.45
2018-03-25T05:12:05.705Z,68.58
2018-03-25T05:14:36.385Z,68.58
2018-03-25T05:17:06.112Z,70.17
2018-03-25T05:19:35.848Z,71.31
2018-03-25T05:22:06.428Z,71.96
2018-03-25T05:24:36.197Z,72.03
2018-03-25T05:27:06.867Z,71.44
2018-03-25T05:29:37.311Z,71.05
2018-03-25T05:32:07.128Z,70.44
2018-03-25T05:34:36.808Z,70.11
2018-03-25T05:37:06.642Z,69.69
2018-03-25T05:39:36.657Z,69.50
2018-03-25T05:42:06.380Z,69.53
2018-03-25T05:44:36.091Z,69.37
2018-03-25T05:47:06.085Z,69.48
2018-03-25T05:49:35.981Z,69.19
2018-03-25T05:52:06.545Z,68.97
2018-03-25T05:54:36.436Z,68.89
2018-03-25T05:57:06.994Z,68.66
2018-03-25T05:59:37.012Z,68.31
2018-03-25T06:02:06.689Z,68.04
2018-03-25T06:04:37.037Z,68.01
2018-03-25T06:07:07.198Z,68.09
2018-03-25T06:09:37.087Z,68.77
2018-03-25T06:12:06.946Z,69.46
2018-03-25T06:14:37.464Z,69.54
2018-03-25T06:17:07.272Z,68.89
2018-03-25T06:19:36.932Z,68.34
2018-03-25T06:22:06.844Z,68.03
2018-03-25T06:24:36.570Z,67.98
2018-03-25T06:27:07.084Z,67.75
2018-03-25T06:29:37.057Z,67.28
2018-03-25T06:32:06.930Z,66.96
2018-03-25T06:34:36.752Z,66.67
2018-03-25T06:37:06.541Z,66.29
2018-03-25T06:39:36.481Z,65.72
2018-03-25T06:42:06.483Z,65.27
2018-03-25T06:44:36.481Z,64.75
2018-03-25T06:47:06.236Z,63.96
2018-03-25T06:49:36.248Z,63.01
2018-03-25T06:52:06.192Z,61.95
2018-03-25T06:54:36.201Z,61.53
2018-03-25T06:57:09.465Z,61.51
2018-03-25T06:59:39.164Z,61.57
2018-03-25T07:02:09.192Z,61.46
2018-03-25T07:04:39.024Z,61.11
2018-03-25T07:07:08.876Z,59.56
2018-03-25T07:09:39.533Z,59.11
2018-03-25T07:12:09.283Z,58.80
2018-03-25T07:14:39.346Z,58.30
2018-03-25T07:17:09.784Z,58.27
2018-03-25T07:19:39.731Z,57.93
2018-03-25T07:22:10.246Z,57.57
2018-03-25T07:24:40.015Z,57.49
2018-03-25T07:27:10.728Z,57.46
2018-03-25T07:29:40.594Z,57.56
2018-03-25T07:32:10.556Z,57.21
2018-03-25T07:34:40.340Z,56.67
2018-03-25T07:37:10.215Z,56.23
2018-03-25T07:39:40.696Z,55.98
2018-03-25T07:42:10.698Z,55.58
2018-03-25T07:44:40.871Z,55.28
2018-03-25T07:47:11.461Z,55.02
2018-03-25T07:49:41.272Z,54.62
2018-03-25T07:52:11.060Z,54.43
2018-03-25T07:54:41.841Z,54.33
2018-03-25T07:57:11.684Z,54.48
2018-03-25T07:59:42.218Z,53.89
2018-03-25T08:02:12.025Z,53.87
2018-03-25T08:04:42.636Z,53.46
2018-03-25T08:07:12.366Z,53.76
2018-03-25T08:09:42.109Z,53.88
2018-03-25T08:12:11.896Z,54.11
2018-03-25T08:14:41.694Z,53.96
2018-03-25T08:17:11.549Z,53.08
2018-03-25T08:19:41.281Z,53.02
2018-03-25T08:22:11.155Z,52.91
2018-03-25T08:24:40.888Z,52.92
2018-03-25T08:27:10.636Z,52.77
2018-03-25T08:29:40.347Z,52.67
2018-03-25T08:32:10.888Z,52.61
2018-03-25T08:34:40.827Z,52.32
2018-03-25T08:37:11.395Z,52.18
2018-03-25T08:39:41.257Z,51.70
2018-03-25T08:42:11.884Z,51.21
2018-03-25T08:44:42.209Z,50.50
2018-03-25T08:47:11.922Z,50.57
2018-03-25T08:49:42.414Z,50.35
2018-03-25T08:52:12.221Z,50.16
2018-03-25T08:54:42.245Z,50.39
2018-03-25T08:57:12.787Z,49.72
2018-03-25T08:59:42.539Z,49.89
2018-03-25T09:02:13.098Z,50.24
2018-03-25T09:04:43.097Z,49.73
2018-03-25T09:07:13.444Z,49.90
2018-03-25T09:09:43.502Z,49.06
2018-03-25T09:12:13.297Z,48.52
2018-03-25T09:14:43.228Z,47.87
2018-03-25T09:17:13.372Z,47.74
2018-03-25T09:19:43.966Z,47.23
2018-03-25T09:22:13.936Z,46.91
2018-03-25T09:24:43.672Z,46.54
2018-03-25T09:27:13.757Z,46.36
2018-03-25T09:29:43.704Z,46.19
2018-03-25T09:32:13.543Z,45.70
2018-03-25T09:34:43.284Z,45.34
2018-03-25T09:37:14.067Z,45.13
2018-03-25T09:39:43.821Z,44.30
2018-03-25T09:42:13.981Z,45.38
2018-03-25T09:44:43.959Z,46.03
2018-03-25T09:47:15.400Z,46.28
2018-03-25T09:49:45.541Z,47.30
2018-03-25T09:52:16.299Z,48.16
2018-03-25T09:54:46.043Z,48.65
2018-03-25T09:57:15.811Z,48.35
2018-03-25T09:59:46.412Z,47.57
2018-03-25T10:02:19.046Z,47.17
2018-03-25T10:04:48.909Z,47.41
2018-03-25T10:07:18.662Z,46.68
2018-03-25T10:09:48.650Z,46.51
2018-03-25T10:12:19.145Z,46.97
2018-03-25T10:14:48.953Z,46.78
2018-03-25T10:17:18.829Z,46.73
2018-03-25T10:19:48.541Z,46.51
2018-03-25T10:22:18.493Z,44.08
2018-03-25T10:24:48.446Z,43.97
2018-03-25T10:27:18.944Z,44.15
2018-03-25T10:29:48.788Z,44.77
2018-03-25T10:32:18.672Z,44.90
2018-03-25T10:34:48.579Z,44.49
2018-03-25T10:37:18.616Z,44.63
2018-03-25T10:39:48.544Z,43.95
2018-03-25T10:42:19.186Z,44.43
2018-03-25T10:44:49.732Z,44.53
2018-03-25T10:47:19.498Z,44.16
2018-03-25T10:49:49.772Z,44.05
2018-03-25T10:52:19.537Z,43.44
2018-03-25T10:54:49.258Z,42.75
2018-03-25T10:57:19.227Z,41.45
2018-03-25T10:59:49.165Z,41.17
2018-03-25T11:02:19.052Z,40.17
2018-03-25T11:04:48.963Z,40.16
2018-03-25T11:07:19.411Z,39.58
2018-03-25T11:09:49.245Z,39.96
2018-03-25T11:12:25.546Z,39.48
2018-03-25T11:14:56.569Z,38.91
2018-03-25T11:17:26.512Z,38.82
2018-03-25T11:19:56.228Z,38.34
2018-03-25T11:22:25.969Z,37.99
2018-03-25T11:24:55.980Z,37.66
2018-03-25T11:27:25.758Z,37.61
2018-03-25T11:29:56.049Z,37.79
2018-03-25T11:32:26.096Z,37.51
2018-03-25T11:34:56.736Z,39.01
2018-03-25T11:37:26.784Z,40.17
2018-03-25T11:39:56.845Z,40.38
2018-03-25T11:42:26.800Z,41.36
2018-03-25T11:44:56.739Z,42.50
2018-03-25T11:47:26.695Z,42.21
2018-03-25T11:49:56.607Z,42.72
2018-03-25T11:52:26.705Z,42.50
2018-03-25T11:54:56.500Z,42.46
2018-03-25T11:57:26.613Z,42.77
2018-03-25T11:59:56.660Z,42.99
2018-03-25T12:02:26.477Z,42.66
2018-03-25T12:04:56.193Z,42.21
2018-03-25T12:07:26.156Z,42.32
2018-03-25T12:09:55.836Z,42.62
2018-03-25T12:12:32.168Z,42.03
2018-03-25T12:15:02.033Z,42.33
2018-03-25T12:17:32.577Z,41.44
2018-03-25T12:20:02.394Z,41.20
2018-03-25T12:22:32.241Z,41.30
2018-03-25T12:25:02.073Z,41.42
2018-03-25T12:27:31.795Z,41.18
2018-03-25T12:30:02.500Z,40.94
2018-03-25T12:32:32.329Z,41.34
2018-03-25T12:35:02.145Z,41.13
2018-03-25T12:37:32.222Z,41.46
2018-03-25T12:40:02.042Z,41.47
2018-03-25T12:42:31.921Z,40.89
2018-03-25T12:45:02.535Z,40.79
2018-03-25T12:47:33.130Z,40.34
2018-03-25T12:50:04.026Z,39.88
2018-03-25T12:52:33.863Z,39.09
2018-03-25T12:55:03.964Z,38.71
2018-03-25T12:57:33.704Z,38.67
2018-03-25T13:00:03.873Z,39.65
2018-03-25T13:02:34.640Z,39.37
2018-03-25T13:05:04.671Z,38.65
2018-03-25T13:07:34.548Z,39.13
2018-03-25T13:10:05.499Z,39.01
2018-03-25T13:12:35.438Z,38.15
2018-03-25T13:15:05.529Z,37.74
2018-03-25T13:17:41.875Z,36.57
2018-03-25T13:20:11.890Z,36.44
2018-03-25T13:25:43.403Z,37.06
2018-03-25T13:28:13.373Z,36.99
2018-03-25T13:30:44.388Z,37.54
2018-03-25T13:33:14.258Z,37.70
2018-03-25T13:35:45.161Z,38.67
2018-03-25T13:38:15.082Z,39.20
2018-03-25T13:40:44.789Z,40.23
2018-03-25T13:43:14.684Z,40.45
2018-03-25T13:45:44.459Z,40.60
2018-03-25T13:48:14.287Z,40.52
2018-03-25T13:50:45.775Z,40.55
2018-03-25T13:53:15.870Z,40.33
2018-03-25T13:55:45.729Z,40.41
2018-03-25T13:58:16.477Z,40.20
2018-03-25T14:00:46.561Z,39.75
2018-03-25T14:03:16.334Z,39.77
2018-03-25T14:05:46.359Z,40.30
2018-03-25T14:08:16.741Z,40.20
2018-03-25T14:10:47.502Z,40.63
2018-03-25T14:13:17.371Z,40.58
2018-03-25T14:15:47.177Z,41.14
2018-03-25T14:18:17.220Z,40.66
2018-03-25T14:20:47.921Z,40.35
2018-03-25T14:23:17.782Z,40.70
2018-03-25T14:25:47.580Z,41.06
2018-03-25T14:28:18.156Z,41.09
2018-03-25T14:30:47.884Z,41.04
2018-03-25T14:33:17.740Z,40.66
2018-03-25T14:35:48.245Z,41.38
2018-03-25T14:38:17.976Z,41.57
2018-03-25T14:40:48.949Z,42.69
2018-03-25T14:43:18.905Z,42.88
2018-03-25T14:45:48.642Z,42.23
2018-03-25T14:48:19.138Z,41.80
2018-03-25T14:50:49.305Z,41.79
2018-03-25T14:53:19.234Z,41.86
2018-03-25T14:55:49.222Z,42.74
2018-03-25T14:58:19.868Z,43.06
2018-03-25T15:00:52.474Z,43.01
2018-03-25T15:03:22.480Z,43.39
2018-03-25T15:05:52.517Z,43.27
2018-03-25T15:08:22.597Z,43.55
2018-03-25T15:10:53.050Z,43.46
2018-03-25T15:13:22.833Z,43.87
2018-03-25T15:15:53.335Z,44.00
2018-03-25T15:18:23.174Z,44.04
2018-03-25T15:20:54.074Z,44.20
2018-03-25T15:23:23.841Z,44.14
2018-03-25T15:25:54.022Z,44.23
2018-03-25T15:28:23.905Z,44.37
2018-03-25T15:30:53.693Z,44.58
2018-03-25T15:33:23.550Z,44.63
2018-03-25T15:35:53.486Z,44.45
2018-03-25T15:38:24.047Z,44.08
2018-03-25T15:40:53.794Z,44.28
2018-03-25T15:43:24.098Z,44.07
2018-03-25T15:45:53.993Z,44.07
2018-03-25T15:48:23.833Z,44.22
2018-03-25T15:50:53.839Z,44.30
2018-03-25T15:53:23.601Z,44.40
2018-03-25T15:55:54.437Z,44.31
2018-03-25T15:58:24.441Z,44.32
2018-03-25T16:00:54.546Z,44.57
2018-03-25T16:03:24.229Z,44.52
2018-03-25T16:05:54.415Z,44.53
2018-03-25T16:08:25.166Z,44.03
2018-03-25T16:10:56.002Z,44.26
2018-03-25T16:13:26.718Z,44.58
2018-03-25T16:15:57.546Z,44.76
2018-03-25T16:18:27.612Z,45.80
2018-03-25T16:20:57.376Z,44.82
2018-03-25T16:23:27.172Z,44.82
2018-03-25T16:25:57.008Z,44.99
2018-03-25T16:28:28.392Z,44.56
2018-03-25T16:30:58.819Z,44.48
2018-03-25T16:33:28.523Z,44.75
2018-03-25T16:35:58.853Z,44.77
2018-03-25T16:38:28.998Z,44.68
2018-03-25T16:40:58.777Z,44.41
2018-03-25T16:43:28.718Z,44.59
2018-03-25T16:45:58.708Z,44.86
2018-03-25T16:48:29.214Z,45.42
2018-03-25T16:50:59.032Z,45.58
2018-03-25T16:53:29.829Z,45.57
2018-03-25T16:55:59.749Z,45.21
2018-03-25T16:58:29.576Z,45.52
2018-03-25T17:00:59.469Z,45.37
2018-03-25T17:03:29.525Z,45.41
2018-03-25T17:06:00.205Z,45.49
2018-03-25T17:08:30.266Z,45.57
2018-03-25T17:11:01.766Z,45.52
2018-03-25T17:13:32.506Z,45.48
2018-03-25T17:16:02.589Z,45.63
2018-03-25T17:18:33.106Z,45.26
2018-03-25T17:21:03.000Z,45.36
2018-03-25T17:23:33.609Z,45.71
2018-03-25T17:26:03.748Z,45.73
2018-03-25T17:28:33.573Z,45.64
2018-03-25T17:31:03.413Z,45.64
2018-03-25T17:33:34.158Z,45.30
2018-03-25T17:36:04.979Z,45.42
2018-03-25T17:38:35.690Z,45.10
2018-03-25T17:41:05.564Z,44.82
2018-03-25T17:43:35.417Z,44.77
2018-03-25T17:46:05.531Z,44.83
2018-03-25T17:48:35.432Z,44.77
2018-03-25T17:51:05.373Z,45.00
2018-03-25T17:53:35.224Z,44.86
2018-03-25T17:56:05.341Z,45.05
2018-03-25T17:58:35.875Z,44.94
2018-03-25T18:01:06.136Z,44.94
2018-03-25T18:03:35.929Z,45.09
2018-03-25T18:06:06.270Z,45.03
2018-03-25T18:08:36.348Z,45.23
2018-03-25T18:11:07.173Z,45.51
2018-03-25T18:13:38.305Z,45.53
2018-03-25T18:16:08.362Z,45.44
2018-03-25T18:18:38.141Z,45.47
2018-03-25T18:21:08.969Z,45.53
2018-03-25T18:23:38.923Z,45.68
2018-03-25T18:26:08.782Z,45.73
2018-03-25T18:28:38.874Z,45.71
2018-03-25T18:31:08.776Z,46.04
2018-03-25T18:33:38.565Z,46.30
2018-03-25T18:36:09.185Z,46.18
2018-03-25T18:38:39.848Z,46.31
2018-03-25T18:41:09.676Z,46.35
2018-03-25T18:43:39.625Z,46.43
2018-03-25T18:46:09.953Z,46.42
2018-03-25T18:48:39.848Z,46.34
2018-03-25T18:51:09.649Z,46.41
2018-03-25T18:53:39.575Z,46.23
2018-03-25T18:56:09.510Z,46.22
2018-03-25T18:58:39.958Z,46.45
2018-03-25T19:01:10.298Z,47.21
2018-03-25T19:03:41.363Z,48.05
2018-03-25T19:06:11.273Z,48.96
2018-03-25T19:08:41.113Z,49.73
2018-03-25T19:11:11.154Z,49.94
2018-03-25T19:13:41.037Z,50.51
2018-03-25T19:16:11.104Z,51.12
2018-03-25T19:18:41.013Z,51.55
2018-03-25T19:21:10.853Z,51.71
2018-03-25T19:23:41.526Z,52.09
2018-03-25T19:26:11.856Z,52.21
2018-03-25T19:28:42.526Z,52.37
2018-03-25T19:31:13.175Z,52.31
2018-03-25T19:33:44.023Z,52.37
2018-03-25T19:36:14.402Z,52.28
2018-03-25T19:38:44.516Z,52.19
2018-03-25T19:41:14.738Z,52.46
2018-03-25T19:43:44.564Z,52.42
2018-03-25T19:46:14.399Z,52.24
2018-03-25T19:48:44.880Z,52.39
2018-03-25T19:51:15.055Z,52.45
2018-03-25T19:53:45.849Z,52.69
2018-03-25T19:56:15.915Z,52.72
2018-03-25T19:58:46.623Z,52.45
2018-03-25T20:01:17.486Z,52.54
2018-03-25T20:03:47.386Z,52.74
2018-03-25T20:06:18.104Z,52.85
2018-03-25T20:08:48.091Z,52.72
2018-03-25T20:11:20.900Z,52.65
2018-03-25T20:13:50.727Z,53.03
2018-03-25T20:16:21.578Z,53.02
2018-03-25T20:18:52.196Z,53.02
2018-03-25T20:21:23.217Z,52.50
2018-03-25T20:23:53.000Z,52.67
2018-03-25T20:26:22.838Z,52.51
2018-03-25T20:28:52.805Z,52.69
2018-03-25T20:31:22.649Z,52.86
2018-03-25T20:33:52.384Z,52.59
2018-03-25T20:36:22.285Z,52.83
2018-03-25T20:38:52.117Z,52.82
2018-03-25T20:41:22.058Z,53.06
2018-03-25T20:43:52.936Z,53.41
2018-03-25T20:46:22.686Z,53.32
2018-03-25T20:48:53.212Z,53.35
2018-03-25T20:51:22.961Z,53.31
2018-03-25T20:53:52.855Z,53.90
2018-03-25T20:56:22.748Z,54.11
2018-03-25T20:58:52.822Z,54.00
2018-03-25T21:01:22.860Z,54.04
2018-03-25T21:03:52.695Z,53.99
2018-03-25T21:06:22.776Z,54.15
2018-03-25T21:08:52.549Z,54.26
2018-03-25T21:11:22.357Z,54.55
2018-03-25T21:13:52.449Z,54.41
2018-03-25T21:16:22.208Z,54.14
2018-03-25T21:18:52.908Z,54.33
2018-03-25T21:21:22.858Z,54.49
2018-03-25T21:23:53.375Z,54.41
2018-03-25T21:26:23.948Z,54.70
2018-03-25T21:28:54.153Z,54.60
2018-03-25T21:31:24.022Z,54.56
2018-03-25T21:33:54.010Z,54.69
2018-03-25T21:36:23.822Z,54.85
2018-03-25T21:38:53.952Z,54.72
2018-03-25T21:41:23.828Z,54.71
2018-03-25T21:43:53.753Z,54.56
2018-03-25T21:46:23.585Z,54.35
2018-03-25T21:48:53.642Z,54.56
2018-03-25T21:51:23.492Z,54.36
2018-03-25T21:53:53.444Z,54.53
2018-03-25T21:56:23.349Z,55.50
2018-03-25T21:58:53.206Z,55.97
2018-03-25T22:01:22.966Z,56.32
2018-03-25T22:03:52.915Z,56.83
2018-03-25T22:06:22.963Z,57.01
2018-03-25T22:08:53.597Z,57.08
2018-03-25T22:11:24.262Z,58.42
2018-03-25T22:13:54.256Z,60.26
2018-03-25T22:16:24.656Z,60.60
2018-03-25T22:19:01.131Z,61.24
2018-03-25T22:21:31.680Z,61.90
2018-03-25T22:24:01.606Z,62.53
2018-03-25T22:26:31.607Z,62.88
2018-03-25T22:29:02.175Z,62.77
2018-03-25T22:31:31.976Z,62.86
2018-03-25T22:34:02.004Z,63.04
2018-03-25T22:36:32.068Z,64.52
2018-03-25T22:39:02.296Z,64.82
2018-03-25T22:41:32.841Z,64.86
2018-03-25T22:44:02.856Z,65.02
2018-03-25T22:46:32.874Z,65.02
2018-03-25T22:49:03.492Z,65.23
2018-03-25T22:51:34.510Z,65.32
2018-03-25T22:54:04.313Z,65.95
2018-03-25T22:56:34.208Z,66.34
2018-03-25T22:59:04.013Z,66.60
2018-03-25T23:01:33.777Z,67.31
2018-03-25T23:04:04.509Z,68.20
2018-03-25T23:06:34.360Z,69.37
2018-03-25T23:09:04.556Z,69.65
2018-03-25T23:11:35.165Z,69.81
2018-03-25T23:14:05.415Z,69.68
2018-03-25T23:16:36.177Z,69.57
2018-03-25T23:19:06.051Z,69.67
2018-03-25T23:21:36.109Z,69.60
2018-03-25T23:24:06.149Z,69.88
2018-03-25T23:26:35.995Z,69.78
2018-03-25T23:29:06.047Z,69.22
2018-03-25T23:31:36.147Z,69.57
2018-03-25T23:34:06.441Z,69.60
2018-03-25T23:36:36.539Z,69.60
2018-03-25T23:39:07.088Z,69.64
2018-03-25T23:41:36.824Z,70.26
2018-03-25T23:44:07.048Z,70.19
2018-03-25T23:46:38.044Z,70.56
2018-03-25T23:49:08.204Z,70.54
2018-03-25T23:51:38.064Z,70.91
2018-03-25T23:54:07.797Z,71.36
2018-03-25T23:56:37.610Z,71.29
2018-03-25T23:59:07.556Z,71.76
